Time;durP1;ratioP1;P1;durP2;ratioP2;P2;SDS_P1;SDS_P2;PMS_P1;PMS_P2;Temp;Humidity;BMP_temperature;BMP_pressure;BME280_temperature;BME280_humidity;BME280_pressure;Samples;Min_cycle;Max_cycle;Signal;HPM_P1;HPM_P2
2022/06/24 00:00:36;;;;;;;24.08;22.10;;;21.90;93.60;;;;;;5026421;28;20075;-80
2022/06/24 00:03:03;;;;;;;23.48;21.98;;;21.90;93.60;;;;;;5026674;28;20533;-81
2022/06/24 00:05:30;;;;;;;24.83;23.10;;;21.90;93.50;;;;;;5013376;28;20056;-80
2022/06/24 00:07:59;;;;;;;23.52;21.92;;;21.90;93.50;;;;;;5007648;28;20053;-81
2022/06/24 00:10:33;;;;;;;24.23;22.52;;;21.90;93.70;;;;;;4995509;28;20048;-80
2022/06/24 00:13:01;;;;;;;23.92;22.23;;;21.90;93.50;;;;;;5011248;28;20102;-81
2022/06/24 00:15:30;;;;;;;24.25;22.65;;;21.80;93.70;;;;;;5005985;28;20045;-79
2022/06/24 00:18:10;;;;;;;24.25;22.65;;;21.80;93.50;;;;;;5008386;28;20095;-80
2022/06/24 00:20:42;;;;;;;24.80;23.00;;;21.80;93.60;;;;;;5011463;28;20243;-78
2022/06/24 00:23:10;;;;;;;24.83;23.17;;;21.90;93.60;;;;;;5009504;28;20056;-80
2022/06/24 00:25:38;;;;;;;25.55;23.65;;;21.80;93.70;;;;;;5025558;28;20040;-80
2022/06/24 00:28:09;;;;;;;23.95;22.27;;;21.80;93.70;;;;;;5026915;28;20548;-79
2022/06/24 00:30:44;;;;;;;24.33;22.63;;;21.80;93.70;;;;;;5024315;28;20045;-80
2022/06/24 00:33:19;;;;;;;24.35;22.48;;;21.80;93.60;;;;;;5043295;28;20515;-79
2022/06/24 00:35:56;;;;;;;25.40;23.35;;;21.80;93.70;;;;;;5021809;28;20043;-80
2022/06/24 00:38:37;;;;;;;24.73;22.95;;;21.80;93.50;;;;;;5010350;28;20063;-81
2022/06/24 00:41:12;;;;;;;25.33;23.42;;;21.80;93.60;;;;;;5028146;23;20053;-75
2022/06/24 00:43:44;;;;;;;25.10;23.08;;;21.90;93.60;;;;;;5028917;28;20041;-75
2022/06/24 00:46:32;;;;;;;25.08;22.88;;;21.90;93.60;;;;;;4993474;28;20410;-74
2022/06/24 00:48:59;;;;;;;24.27;22.60;;;21.80;93.70;;;;;;5002480;28;20054;-75
2022/06/24 00:51:37;;;;;;;25.40;23.40;;;21.80;93.90;;;;;;5004995;28;20194;-77
2022/06/24 00:54:08;;;;;;;24.52;22.83;;;21.80;93.70;;;;;;5005254;28;20063;-75
2022/06/24 00:56:35;;;;;;;24.98;22.95;;;21.70;93.70;;;;;;5022843;28;20046;-76
2022/06/24 00:59:08;;;;;;;25.35;23.55;;;21.70;94.00;;;;;;5036056;23;20114;-77
2022/06/24 01:01:43;;;;;;;25.50;23.65;;;21.80;93.70;;;;;;5018218;28;20052;-77
2022/06/24 01:04:11;;;;;;;24.88;23.17;;;21.70;94.00;;;;;;5014562;28;20050;-77
2022/06/24 01:06:40;;;;;;;25.15;23.33;;;21.60;94.10;;;;;;4999473;28;20089;-74
2022/06/24 01:09:10;;;;;;;25.73;23.73;;;21.50;94.10;;;;;;4982010;28;20054;-75
2022/06/24 01:11:41;;;;;;;25.20;23.20;;;21.60;94.00;;;;;;5001295;28;20629;-77
2022/06/24 01:14:10;;;;;;;25.23;23.33;;;21.50;94.50;;;;;;5004865;28;20071;-77
2022/06/24 01:16:37;;;;;;;25.33;23.42;;;21.50;94.20;;;;;;5005398;28;20053;-75
2022/06/24 01:19:07;;;;;;;25.38;23.48;;;21.40;94.70;;;;;;5017326;28;20061;-74
2022/06/24 01:21:45;;;;;;;25.25;23.40;;;21.30;94.50;;;;;;5001113;28;20126;-74
2022/06/24 01:24:16;;;;;;;25.58;23.55;;;21.40;95.20;;;;;;4999933;28;20111;-76
2022/06/24 01:26:50;;;;;;;25.45;23.55;;;21.30;95.00;;;;;;5017032;28;20054;-74
2022/06/24 01:29:19;;;;;;;25.73;23.92;;;21.30;95.10;;;;;;5001550;28;20053;-74
2022/06/24 01:31:50;;;;;;;25.60;23.80;;;21.20;94.90;;;;;;4994348;28;20144;-74
2022/06/24 01:34:19;;;;;;;25.42;23.63;;;21.20;96.20;;;;;;5018883;28;20053;-76
2022/06/24 01:36:46;;;;;;;25.42;23.52;;;21.10;96.10;;;;;;5018948;28;20049;-75
2022/06/24 01:39:14;;;;;;;25.77;23.80;;;20.90;96.10;;;;;;5016131;28;20357;-75
2022/06/24 01:41:41;;;;;;;25.92;24.13;;;21.00;96.80;;;;;;4982417;28;20045;-75
2022/06/24 01:44:08;;;;;;;26.50;24.40;;;20.90;96.90;;;;;;5009474;28;20064;-75
2022/06/24 01:46:35;;;;;;;25.13;23.42;;;20.80;97.00;;;;;;5007527;28;20556;-77
2022/06/24 01:49:03;;;;;;;25.38;23.58;;;20.80;96.50;;;;;;4989159;28;20088;-76
2022/06/24 01:51:31;;;;;;;25.35;23.63;;;20.80;97.40;;;;;;4985717;28;20049;-77
2022/06/24 01:53:58;;;;;;;26.83;24.73;;;20.60;96.20;;;;;;5002547;28;20159;-76
2022/06/24 01:56:25;;;;;;;26.23;23.88;;;20.60;97.30;;;;;;5024227;28;20485;-75
2022/06/24 01:58:52;;;;;;;25.80;23.80;;;20.60;97.30;;;;;;4997933;28;20145;-75
2022/06/24 02:01:19;;;;;;;25.67;23.88;;;20.60;97.90;;;;;;5013208;28;20050;-75
2022/06/24 02:03:46;;;;;;;25.98;23.80;;;20.50;96.90;;;;;;5023502;28;20084;-74
2022/06/24 02:06:14;;;;;;;26.15;24.17;;;20.60;96.30;;;;;;5007833;28;20108;-75
2022/06/24 02:08:42;;;;;;;26.60;24.50;;;20.70;95.90;;;;;;5003319;28;20493;-75
2022/06/24 02:14:03;;;;;;;25.63;23.73;;;20.80;96.30;;;;;;5002528;28;20148;-75
2022/06/24 02:16:31;;;;;;;25.73;23.92;;;20.80;96.20;;;;;;5001142;28;20049;-75
2022/06/24 02:18:59;;;;;;;26.23;24.42;;;20.70;96.90;;;;;;4992722;28;20214;-75
2022/06/24 02:21:26;;;;;;;25.13;23.13;;;20.70;97.10;;;;;;4987842;28;20152;-75
2022/06/24 02:23:54;;;;;;;26.15;24.13;;;20.80;98.20;;;;;;5018949;28;20064;-74
2022/06/24 02:26:21;;;;;;;25.85;23.92;;;20.80;97.30;;;;;;5003507;28;20064;-76
2022/06/24 02:28:48;;;;;;;26.00;23.90;;;20.70;97.40;;;;;;5000831;28;20206;-75
2022/06/24 02:31:15;;;;;;;25.75;23.95;;;20.60;97.50;;;;;;5010890;28;20096;-75
2022/06/24 02:33:42;;;;;;;25.70;23.90;;;20.60;97.00;;;;;;5021827;28;20099;-75
2022/06/24 02:36:08;;;;;;;25.05;23.20;;;20.70;97.50;;;;;;5001370;28;20139;-74
2022/06/24 02:38:36;;;;;;;25.63;23.58;;;20.70;96.80;;;;;;5020289;28;20064;-75
2022/06/24 02:41:10;;;;;;;25.42;23.52;;;20.80;96.90;;;;;;5019342;28;20049;-75
2022/06/24 02:43:39;;;;;;;25.10;23.17;;;20.80;97.00;;;;;;5019320;28;20128;-75
2022/06/24 02:46:09;;;;;;;25.17;23.38;;;20.80;97.20;;;;;;4999229;28;20076;-75
2022/06/24 02:48:39;;;;;;;25.13;23.25;;;20.90;97.00;;;;;;5017399;28;20052;-75
2022/06/24 02:51:08;;;;;;;25.88;23.92;;;20.80;96.90;;;;;;5001072;28;20064;-76
2022/06/24 02:53:36;;;;;;;25.10;23.33;;;20.80;97.20;;;;;;5003562;28;20640;-74
2022/06/24 02:56:14;;;;;;;26.27;24.15;;;20.80;97.50;;;;;;5001449;28;20057;-74
2022/06/24 02:58:42;;;;;;;25.60;23.88;;;20.70;97.20;;;;;;5029442;28;20123;-77
2022/06/24 03:01:10;;;;;;;25.08;23.30;;;20.70;97.20;;;;;;4998808;28;20481;-77
2022/06/24 03:03:37;;;;;;;25.02;23.33;;;20.70;97.10;;;;;;5002264;28;20165;-75
2022/06/24 03:06:04;;;;;;;26.23;24.23;;;20.70;97.20;;;;;;5006013;28;20434;-75
2022/06/24 03:08:32;;;;;;;26.50;24.50;;;20.60;97.50;;;;;;4992748;28;20049;-75
2022/06/24 03:10:59;;;;;;;25.67;23.58;;;20.60;97.70;;;;;;5000002;28;20107;-75
2022/06/24 03:13:26;;;;;;;26.15;24.15;;;20.70;97.90;;;;;;5000567;28;20045;-75
2022/06/24 03:15:53;;;;;;;25.83;23.88;;;20.60;98.30;;;;;;4999809;28;20061;-75
2022/06/24 03:18:20;;;;;;;26.23;24.13;;;20.60;98.90;;;;;;5008183;28;20045;-75
2022/06/24 03:20:47;;;;;;;27.63;25.60;;;20.60;99.20;;;;;;5006363;28;20042;-77
2022/06/24 03:23:15;;;;;;;26.80;24.52;;;20.60;99.80;;;;;;5002749;28;20061;-76
2022/06/24 03:25:43;;;;;;;25.20;23.27;;;20.50;99.90;;;;;;4986397;28;20054;-77
2022/06/24 03:28:10;;;;;;;25.73;23.90;;;20.20;99.90;;;;;;5003965;28;20045;-76
2022/06/24 03:30:37;;;;;;;25.48;23.52;;;20.00;99.90;;;;;;4984645;28;20049;-76
2022/06/24 03:33:05;;;;;;;27.58;25.70;;;19.80;99.90;;;;;;5001287;28;20646;-76
2022/06/24 03:35:32;;;;;;;27.95;25.77;;;19.70;99.90;;;;;;5027122;28;20379;-75
2022/06/24 03:37:59;;;;;;;26.90;25.10;;;19.80;99.90;;;;;;5021641;28;20053;-77
2022/06/24 03:40:25;;;;;;;27.88;26.05;;;19.80;99.90;;;;;;5007192;28;20054;-77
2022/06/24 03:42:53;;;;;;;28.17;26.27;;;19.80;99.90;;;;;;5002455;28;20053;-77
2022/06/24 03:45:20;;;;;;;28.13;26.02;;;19.90;99.90;;;;;;4988991;28;20042;-77
2022/06/24 03:47:47;;;;;;;27.40;25.58;;;19.90;99.90;;;;;;5003534;28;20065;-76
2022/06/24 03:50:15;;;;;;;27.98;26.02;;;19.80;99.90;;;;;;5025338;28;20064;-77
2022/06/24 03:52:43;;;;;;;27.65;25.83;;;19.70;99.90;;;;;;4998456;28;20109;-77
2022/06/24 03:55:11;;;;;;;28.15;26.15;;;19.60;99.90;;;;;;4985369;28;20056;-76
2022/06/24 03:57:38;;;;;;;28.33;26.13;;;19.60;99.90;;;;;;5018188;28;20552;-76
2022/06/24 04:00:07;;;;;;;27.80;25.90;;;19.50;99.90;;;;;;5007973;28;20490;-77
2022/06/24 04:02:37;;;;;;;28.48;26.20;;;19.50;99.90;;;;;;4999878;28;20076;-77
2022/06/24 04:05:11;;;;;;;29.63;27.43;;;19.50;99.90;;;;;;5001161;28;20394;-76
2022/06/24 04:07:38;;;;;;;29.65;27.52;;;19.40;99.90;;;;;;5003158;28;20103;-77
2022/06/24 04:10:06;;;;;;;30.25;28.15;;;19.50;99.90;;;;;;5025320;28;20057;-77
2022/06/24 04:12:33;;;;;;;29.92;27.73;;;19.40;99.90;;;;;;5030568;28;20061;-77
2022/06/24 04:15:13;;;;;;;29.30;27.40;;;19.30;99.90;;;;;;5020711;28;20053;-77
2022/06/24 04:17:41;;;;;;;30.27;27.92;;;19.30;99.90;;;;;;5020597;28;20092;-77
2022/06/24 04:20:08;;;;;;;30.92;28.35;;;19.30;99.90;;;;;;5027683;28;20617;-77
2022/06/24 04:22:36;;;;;;;29.75;27.67;;;19.30;99.90;;;;;;5019500;28;20053;-77
2022/06/24 04:25:03;;;;;;;30.48;28.48;;;19.40;99.90;;;;;;5000826;28;20323;-77
2022/06/24 04:27:30;;;;;;;31.55;29.23;;;19.50;99.90;;;;;;4993537;28;20537;-77
2022/06/24 04:29:59;;;;;;;31.02;28.80;;;19.70;99.90;;;;;;5001708;28;20065;-78
2022/06/24 04:32:26;;;;;;;29.25;27.15;;;19.90;99.90;;;;;;5012050;28;20061;-76
2022/06/24 04:34:53;;;;;;;28.75;26.77;;;20.20;99.90;;;;;;5016385;28;20114;-76
2022/06/24 04:37:20;;;;;;;29.00;26.77;;;20.40;99.90;;;;;;5014590;28;20049;-76
2022/06/24 04:39:46;;;;;;;29.05;27.05;;;20.50;99.90;;;;;;4980949;28;20502;-77
2022/06/24 04:42:13;;;;;;;28.42;26.52;;;21.00;99.90;;;;;;5015536;28;20492;-77
2022/06/24 04:44:40;;;;;;;27.25;25.35;;;21.70;99.90;;;;;;5016041;28;20056;-76
2022/06/24 04:47:12;;;;;;;26.95;25.00;;;22.10;99.90;;;;;;5000330;28;20033;-77
2022/06/24 04:49:39;;;;;;;28.17;26.00;;;22.30;99.90;;;;;;5016592;28;20057;-74
2022/06/24 04:52:06;;;;;;;27.17;24.85;;;22.70;99.90;;;;;;4997614;28;20510;-77
2022/06/24 04:54:32;;;;;;;25.65;23.83;;;23.10;99.90;;;;;;5013186;28;20046;-77
2022/06/24 04:56:59;;;;;;;26.40;24.33;;;23.50;99.90;;;;;;5013859;28;20049;-77
2022/06/24 04:59:26;;;;;;;26.10;24.08;;;23.90;99.90;;;;;;4997262;28;20053;-77
2022/06/24 05:01:54;;;;;;;26.45;24.52;;;24.10;99.90;;;;;;4997079;28;20033;-77
2022/06/24 05:04:21;;;;;;;25.45;23.48;;;24.30;99.90;;;;;;4998446;28;20111;-77
2022/06/24 05:06:49;;;;;;;26.95;24.88;;;24.50;99.90;;;;;;5029750;28;20119;-77
2022/06/24 05:09:17;;;;;;;25.63;23.73;;;24.50;99.90;;;;;;4997357;28;20041;-78
2022/06/24 05:11:45;;;;;;;26.83;24.50;;;24.20;99.90;;;;;;4996111;28;20046;-77
2022/06/24 05:14:13;;;;;;;25.67;23.77;;;24.10;99.90;;;;;;5014640;28;20045;-77
2022/06/24 05:16:40;;;;;;;25.98;24.05;;;24.20;99.90;;;;;;4998960;28;20120;-77
2022/06/24 05:19:09;;;;;;;25.17;23.27;;;24.50;99.90;;;;;;4994728;28;20187;-77
2022/06/24 05:21:36;;;;;;;26.45;24.23;;;24.70;99.90;;;;;;5000807;28;20045;-78
2022/06/24 05:24:03;;;;;;;26.00;24.05;;;24.90;99.90;;;;;;5017684;28;20061;-78
2022/06/24 05:26:30;;;;;;;26.27;24.17;;;24.90;99.90;;;;;;5019061;28;20049;-77
2022/06/24 05:28:57;;;;;;;26.55;24.75;;;24.50;99.90;;;;;;5027582;28;20602;-78
2022/06/24 05:31:24;;;;;;;26.77;24.75;;;24.30;99.90;;;;;;4998332;28;20037;-78
2022/06/24 05:33:51;;;;;;;25.70;24.05;;;23.90;99.90;;;;;;5009394;28;20081;-77
2022/06/24 05:36:18;;;;;;;26.25;24.20;;;23.50;99.90;;;;;;4999052;28;20096;-77
2022/06/24 05:38:46;;;;;;;26.58;24.40;;;23.40;99.90;;;;;;5000073;28;20061;-77
2022/06/24 05:41:13;;;;;;;27.10;25.15;;;23.10;99.90;;;;;;4998649;28;20042;-78
2022/06/24 05:43:40;;;;;;;27.48;25.60;;;22.80;99.90;;;;;;4980952;28;20128;-76
2022/06/24 05:46:07;;;;;;;27.48;25.27;;;22.60;99.90;;;;;;4998780;28;20322;-76
2022/06/24 05:48:34;;;;;;;27.02;25.23;;;22.40;99.90;;;;;;4997509;28;20077;-77
2022/06/24 05:51:10;;;;;;;26.67;24.85;;;22.30;99.90;;;;;;4999247;28;20050;-77
2022/06/24 05:56:23;;;;;;;27.88;25.83;;;22.50;99.90;;;;;;5000135;28;20049;-77
2022/06/24 05:58:50;;;;;;;27.23;25.10;;;22.70;99.90;;;;;;4981130;28;20096;-77
2022/06/24 06:01:18;;;;;;;26.58;24.58;;;22.80;99.90;;;;;;4977861;28;20056;-77
2022/06/24 06:03:47;;;;;;;26.25;24.27;;;22.90;99.90;;;;;;5033426;28;20096;-78
2022/06/24 06:06:14;;;;;;;25.85;23.60;;;23.00;99.90;;;;;;4999964;28;20099;-77
2022/06/24 06:08:40;;;;;;;26.42;24.63;;;23.20;99.90;;;;;;5013736;28;20044;-77
2022/06/24 06:11:19;;;;;;;25.52;23.90;;;23.30;99.90;;;;;;5016053;28;20057;-81
2022/06/24 06:13:48;;;;;;;26.02;23.90;;;23.30;99.90;;;;;;5000583;28;20265;-76
2022/06/24 06:16:16;;;;;;;26.40;24.63;;;23.10;99.90;;;;;;4997201;28;20049;-76
2022/06/24 06:18:43;;;;;;;24.98;23.40;;;23.00;99.90;;;;;;4983771;28;20050;-78
2022/06/24 06:21:11;;;;;;;25.17;23.20;;;22.80;99.90;;;;;;5003473;28;20046;-77
2022/06/24 06:23:40;;;;;;;25.60;23.60;;;22.70;99.90;;;;;;4990873;28;21019;-77
2022/06/24 06:26:08;;;;;;;24.75;22.67;;;22.70;99.90;;;;;;5019191;28;20045;-77
2022/06/24 06:28:36;;;;;;;25.73;23.58;;;22.40;99.90;;;;;;5015509;28;20136;-77
2022/06/24 06:31:03;;;;;;;25.05;23.35;;;22.10;99.90;;;;;;5016567;28;20060;-78
2022/06/24 06:33:33;;;;;;;25.83;24.10;;;21.80;99.90;;;;;;5017990;28;20502;-79
2022/06/24 06:36:08;;;;;;;25.42;23.55;;;21.70;99.90;;;;;;4984332;28;20045;-82
2022/06/24 06:38:35;;;;;;;;;;;21.50;99.90;;;;;;5019676;28;20487;-79
2022/06/24 06:41:02;;;;;;;26.40;24.35;;;21.40;99.90;;;;;;5017983;28;19937;-76
2022/06/24 06:43:38;;;;;;;25.80;23.92;;;21.30;99.90;;;;;;4994180;28;20120;-75
2022/06/24 06:46:10;;;;;;;26.73;25.02;;;21.20;99.90;;;;;;4993584;28;20050;-72
2022/06/24 06:48:37;;;;;;;27.92;25.73;;;21.20;99.90;;;;;;4962184;28;21008;-74
2022/06/24 06:51:04;;;;;;;25.90;24.13;;;21.10;99.90;;;;;;4989010;28;20204;-74
2022/06/24 06:53:31;;;;;;;25.20;23.60;;;21.00;99.90;;;;;;5019135;28;20105;-76
2022/06/24 06:55:58;;;;;;;27.00;24.83;;;21.00;99.90;;;;;;4981365;28;20045;-74
2022/06/24 06:58:25;;;;;;;27.05;25.17;;;21.00;99.90;;;;;;5001469;28;20073;-73
2022/06/24 07:00:52;;;;;;;26.20;24.60;;;21.00;99.90;;;;;;4998075;28;20060;-74
2022/06/24 07:03:19;;;;;;;26.85;24.65;;;21.10;99.90;;;;;;4998162;28;20394;-72
2022/06/24 07:05:46;;;;;;;26.85;25.05;;;21.10;99.90;;;;;;4980323;28;20053;-75
2022/06/24 07:08:15;;;;;;;27.05;25.08;;;21.20;99.90;;;;;;4981803;28;20061;-75
2022/06/24 07:10:44;;;;;;;26.55;24.35;;;21.10;99.90;;;;;;4980155;28;20071;-74
2022/06/24 07:13:11;;;;;;;25.67;23.77;;;21.20;99.90;;;;;;4981388;28;20060;-75
2022/06/24 07:15:39;;;;;;;24.50;22.90;;;21.20;99.90;;;;;;4995519;28;20589;-74
2022/06/24 07:18:06;;;;;;;24.58;22.85;;;21.20;99.90;;;;;;4997975;28;20506;-76
2022/06/24 07:20:33;;;;;;;23.83;22.13;;;21.00;99.90;;;;;;4998823;28;20052;-74
2022/06/24 07:23:00;;;;;;;24.83;22.73;;;21.00;99.90;;;;;;4996076;28;20800;-76
2022/06/24 07:25:27;;;;;;;24.80;22.98;;;21.20;99.90;;;;;;4979863;28;20061;-76
2022/06/24 07:27:54;;;;;;;24.15;22.45;;;21.30;99.90;;;;;;4990034;28;20052;-75
2022/06/24 07:30:21;;;;;;;23.23;21.75;;;21.30;99.90;;;;;;4995562;28;20053;-74
2022/06/24 07:32:48;;;;;;;23.73;22.33;;;21.40;99.90;;;;;;4997179;28;20058;-77
2022/06/24 07:35:15;;;;;;;24.25;22.50;;;21.50;99.90;;;;;;5000717;28;20050;-77
2022/06/24 07:38:02;;;;;;;23.83;22.42;;;21.50;99.90;;;;;;4980412;28;20565;-77
2022/06/24 07:40:29;;;;;;;25.33;23.85;;;21.80;99.90;;;;;;4980266;28;20046;-75
2022/06/24 07:42:55;;;;;;;26.02;24.30;;;22.20;99.90;;;;;;5013165;28;20053;-76
2022/06/24 07:45:22;;;;;;;25.45;23.75;;;22.60;99.90;;;;;;5008178;28;20290;-74
2022/06/24 07:47:49;;;;;;;26.45;24.75;;;22.70;99.90;;;;;;4997022;28;20725;-75
2022/06/24 07:50:16;;;;;;;26.10;24.05;;;23.00;99.90;;;;;;4995861;28;20054;-75
2022/06/24 07:52:42;;;;;;;26.65;24.95;;;23.20;99.90;;;;;;4991599;28;20042;-74
2022/06/24 07:57:55;;;;;;;24.48;22.85;;;23.00;99.90;;;;;;4979367;28;20506;-75
2022/06/24 08:00:22;;;;;;;24.80;23.00;;;23.20;99.90;;;;;;4981590;28;20042;-74
2022/06/24 08:02:49;;;;;;;24.77;23.15;;;23.10;99.90;;;;;;4998638;28;20125;-76
2022/06/24 08:05:16;;;;;;;24.20;22.70;;;22.50;99.90;;;;;;4997986;28;20454;-73
2022/06/24 08:07:45;;;;;;;24.65;23.17;;;22.40;99.90;;;;;;4980522;28;20107;-75
2022/06/24 08:10:12;;;;;;;25.08;23.58;;;22.30;99.90;;;;;;4981689;28;20053;-78
2022/06/24 08:12:40;;;;;;;24.27;22.77;;;22.00;99.90;;;;;;4997345;28;20463;-76
2022/06/24 08:15:07;;;;;;;24.65;23.00;;;22.00;99.90;;;;;;4977491;28;20065;-76
2022/06/24 08:17:34;;;;;;;25.48;23.92;;;22.10;99.90;;;;;;4995072;28;20054;-76
2022/06/24 08:20:01;;;;;;;25.85;24.25;;;21.90;99.90;;;;;;4994843;28;20061;-74
2022/06/24 08:22:28;;;;;;;25.90;24.38;;;22.10;99.90;;;;;;4999401;28;20048;-76
2022/06/24 08:24:55;;;;;;;25.33;23.83;;;21.90;99.90;;;;;;4982550;28;20045;-73
2022/06/24 08:27:42;;;;;;;26.30;24.60;;;21.70;99.90;;;;;;4967691;28;20054;-76
2022/06/24 08:30:09;;;;;;;25.60;23.92;;;21.60;99.90;;;;;;4997075;28;20049;-76
2022/06/24 08:32:36;;;;;;;24.98;23.25;;;21.80;99.90;;;;;;4996684;28;20389;-76
2022/06/24 08:35:03;;;;;;;25.35;23.52;;;21.80;99.90;;;;;;4963170;28;20120;-75
2022/06/24 08:37:50;;;;;;;25.02;23.17;;;21.60;99.90;;;;;;4998983;28;20061;-78
2022/06/24 08:40:19;;;;;;;24.33;22.83;;;21.30;99.90;;;;;;4980058;28;20776;-76
2022/06/24 08:42:52;;;;;;;23.92;22.40;;;21.00;99.90;;;;;;4979960;28;20049;-77
2022/06/24 08:45:20;;;;;;;23.95;22.45;;;20.90;99.90;;;;;;4986525;28;20047;-77
2022/06/24 08:47:48;;;;;;;23.73;22.42;;;20.60;99.90;;;;;;4997135;28;20045;-75
2022/06/24 08:50:17;;;;;;;23.73;22.25;;;20.50;99.90;;;;;;4981706;28;20348;-77
2022/06/24 08:52:49;;;;;;;24.17;22.60;;;20.60;99.90;;;;;;5001245;28;20045;-74
2022/06/24 08:55:22;;;;;;;24.33;22.58;;;20.70;99.90;;;;;;5018147;28;20112;-76
2022/06/24 08:57:49;;;;;;;24.35;22.65;;;20.80;99.90;;;;;;5005188;28;20428;-74
2022/06/24 09:00:18;;;;;;;23.48;21.88;;;20.70;99.90;;;;;;4999753;28;20422;-74
2022/06/24 09:02:46;;;;;;;24.20;22.80;;;20.70;99.90;;;;;;4996855;28;20057;-75
2022/06/24 09:05:14;;;;;;;24.45;22.50;;;20.80;99.90;;;;;;5001329;28;20168;-76
2022/06/24 09:07:41;;;;;;;24.38;22.88;;;21.00;99.90;;;;;;4983071;28;20110;-74
2022/06/24 09:10:13;;;;;;;25.23;23.58;;;21.20;99.90;;;;;;5001766;28;20038;-75
2022/06/24 09:12:45;;;;;;;24.77;23.27;;;21.40;99.90;;;;;;5000943;28;20084;-75
2022/06/24 09:15:14;;;;;;;25.63;23.90;;;21.50;99.90;;;;;;4974771;28;20057;-73
2022/06/24 09:17:42;;;;;;;25.92;24.27;;;21.70;99.90;;;;;;4981721;28;20054;-77
2022/06/24 09:20:19;;;;;;;26.20;24.25;;;21.90;99.90;;;;;;4996266;28;20070;-78
2022/06/24 09:23:08;;;;;;;26.17;24.58;;;21.90;99.90;;;;;;4990394;28;20151;-73
2022/06/24 09:25:49;;;;;;;25.98;24.05;;;22.20;99.90;;;;;;4981084;28;20501;-76
2022/06/24 09:28:24;;;;;;;25.80;23.67;;;22.40;99.90;;;;;;4982438;28;20402;-76
2022/06/24 09:31:07;;;;;;;24.85;23.45;;;22.40;99.90;;;;;;5000468;28;20127;-74
2022/06/24 09:33:44;;;;;;;25.48;23.92;;;22.40;99.90;;;;;;4999849;28;20656;-75
2022/06/24 09:36:12;;;;;;;26.65;25.05;;;22.40;99.90;;;;;;4999058;28;20144;-74
2022/06/24 09:39:12;;;;;;;25.23;23.60;;;22.30;99.90;;;;;;5001663;28;20478;-76
2022/06/24 09:41:55;;;;;;;26.50;24.65;;;22.40;99.90;;;;;;4990652;28;20056;-74
2022/06/24 09:44:26;;;;;;;26.27;24.48;;;22.20;99.90;;;;;;4983317;28;20054;-74
2022/06/24 09:47:05;;;;;;;25.15;23.48;;;22.40;99.90;;;;;;4982036;28;20052;-73
2022/06/24 09:49:32;;;;;;;25.23;23.42;;;22.70;99.90;;;;;;4984008;28;20407;-74
2022/06/24 09:51:59;;;;;;;25.48;23.80;;;23.10;99.90;;;;;;5001969;28;20046;-77
2022/06/24 09:58:40;;;;;;;25.65;23.92;;;23.20;99.90;;;;;;4992450;28;20485;-76
2022/06/24 10:01:07;;;;;;;25.98;24.20;;;23.10;99.90;;;;;;4981230;28;20049;-76
2022/06/24 10:03:37;;;;;;;26.00;24.40;;;23.10;99.90;;;;;;4979056;28;20060;-76
2022/06/24 10:06:08;;;;;;;27.30;25.48;;;23.00;99.90;;;;;;4982798;28;20283;-76
2022/06/24 10:08:37;;;;;;;24.98;23.40;;;23.00;99.90;;;;;;4983319;28;20302;-76
2022/06/24 10:11:26;;;;;;;26.08;24.35;;;22.90;99.90;;;;;;5000355;28;20183;-76
2022/06/24 10:13:54;;;;;;;25.40;23.90;;;23.10;99.90;;;;;;4966537;28;20050;-77
2022/06/24 10:16:21;;;;;;;25.50;23.90;;;23.20;99.90;;;;;;4981098;28;20054;-79
2022/06/24 10:18:51;;;;;;;25.63;24.05;;;23.40;99.90;;;;;;4980351;28;20054;-78
2022/06/24 10:21:19;;;;;;;25.80;24.20;;;23.50;99.90;;;;;;4986653;28;20068;-76
2022/06/24 10:23:49;;;;;;;25.65;24.17;;;23.50;99.90;;;;;;5003318;28;20541;-78
2022/06/24 10:26:30;;;;;;;26.27;24.33;;;23.60;99.90;;;;;;5004483;28;20065;-76
2022/06/24 10:29:03;;;;;;;26.05;24.48;;;23.60;99.90;;;;;;4969233;28;20041;-76
2022/06/24 10:31:42;;;;;;;26.90;24.98;;;23.80;99.90;;;;;;5000475;28;20165;-77
2022/06/24 10:34:30;;;;;;;25.45;24.00;;;24.20;99.90;;;;;;5003126;28;20076;-78
2022/06/24 10:37:22;;;;;;;26.30;24.73;;;24.20;99.90;;;;;;4985128;28;20049;-78
2022/06/24 10:39:55;;;;;;;25.02;23.38;;;24.20;99.90;;;;;;5003110;28;20041;-78
2022/06/24 10:42:22;;;;;;;25.45;23.88;;;24.30;99.90;;;;;;4983915;28;20139;-76
2022/06/24 10:45:04;;;;;;;25.45;23.80;;;24.40;99.90;;;;;;4966649;28;20495;-80
2022/06/24 10:47:41;;;;;;;26.15;24.38;;;24.60;99.90;;;;;;5000462;28;20054;-78
2022/06/24 10:50:14;;;;;;;26.30;24.63;;;24.70;99.90;;;;;;4985677;28;20052;-78
2022/06/24 10:52:56;;;;;;;25.73;23.95;;;24.70;99.90;;;;;;5001825;28;20777;-77
2022/06/24 10:55:29;;;;;;;26.00;24.40;;;24.40;99.90;;;;;;4999828;28;20120;-78
